Time;durP1;ratioP1;P1;durP2;ratioP2;P2;SDS_P1;SDS_P2;PMS_P1;PMS_P2;Temp;Humidity;BMP_temperature;BMP_pressure;BME280_temperature;BME280_humidity;BME280_pressure;Samples;Min_cycle;Max_cycle;Signal;HPM_P1;HPM_P2
2022/08/10 00:02:27;;;;;;;1.38;0.57;;;;;;;23.00;46.73;101066.72;5011242;28;20100;-60
2022/08/10 00:04:53;;;;;;;2.78;0.32;;;;;;;23.99;43.09;101069.56;5008342;28;20038;-61
2022/08/10 00:07:18;;;;;;;0.60;0.50;;;;;;;24.25;42.91;101063.19;5008595;28;20298;-59
2022/08/10 00:09:43;;;;;;;3.03;0.30;;;;;;;24.07;44.68;101055.97;5005926;28;20037;-60
2022/08/10 00:12:09;;;;;;;2.40;0.32;;;;;;;23.66;46.14;101055.69;5008989;28;20038;-60
2022/08/10 00:14:34;;;;;;;0.85;0.30;;;;;;;23.22;47.21;101052.06;5011234;28;20425;-61
2022/08/10 00:17:00;;;;;;;2.25;0.20;;;;;;;23.03;47.27;101045.03;5009650;28;20046;-59
2022/08/10 00:19:25;;;;;;;1.77;0.40;;;;;;;22.90;48.10;101045.09;5009644;28;20033;-60
2022/08/10 00:21:51;;;;;;;3.90;0.50;;;;;;;22.76;48.81;101045.09;4991973;28;20052;-59
2022/08/10 00:24:17;;;;;;;1.95;0.30;;;;;;;22.83;47.52;101035.31;5004784;28;20406;-59
2022/08/10 00:26:43;;;;;;;4.20;0.60;;;;;;;23.11;46.39;101047.44;4991392;28;20493;-59
2022/08/10 00:29:10;;;;;;;2.38;0.40;;;;;;;23.39;44.91;101050.53;5006918;28;20095;-59
2022/08/10 00:31:35;;;;;;;1.77;0.50;;;;;;;23.65;44.07;101043.41;5007115;28;20030;-60
2022/08/10 00:34:01;;;;;;;2.50;0.30;;;;;;;23.66;44.29;101050.38;4996931;28;20022;-61
2022/08/10 00:36:27;;;;;;;1.10;0.73;;;;;;;23.68;44.44;101041.16;5010521;28;20049;-60
2022/08/10 00:38:52;;;;;;;2.10;0.30;;;;;;;23.56;44.02;101039.44;5010591;28;20405;-60
2022/08/10 00:41:18;;;;;;;3.05;0.40;;;;;;;23.87;42.50;101034.03;5010185;28;20521;-59
2022/08/10 00:43:43;;;;;;;1.63;0.40;;;;;;;24.14;41.77;101031.94;4992732;28;20033;-60
2022/08/10 00:46:09;;;;;;;4.22;0.35;;;;;;;24.27;41.73;101031.03;5008951;28;20450;-59
2022/08/10 00:48:34;;;;;;;1.88;0.60;;;;;;;24.17;41.55;101042.16;5009220;28;20268;-59
2022/08/10 00:51:00;;;;;;;1.33;0.35;;;;;;;24.30;41.14;101033.25;5005780;28;20441;-60
2022/08/10 00:53:27;;;;;;;3.40;0.40;;;;;;;24.22;41.40;101029.00;4999946;28;20069;-60
2022/08/10 00:55:53;;;;;;;1.58;0.35;;;;;;;24.16;41.35;101036.00;4997965;28;20030;-59
2022/08/10 00:58:18;;;;;;;1.25;0.20;;;;;;;24.31;40.92;101027.69;5008538;28;20105;-59
2022/08/10 01:00:46;;;;;;;1.42;0.30;;;;;;;24.35;40.86;101033.41;5009104;28;20033;-60
2022/08/10 01:03:12;;;;;;;2.97;0.55;;;;;;;24.30;40.95;101028.72;5009742;28;20017;-59
2022/08/10 01:05:47;;;;;;;2.13;0.43;;;;;;;24.32;40.58;101031.19;5008573;28;20484;-59
2022/08/10 01:08:28;;;;;;;2.15;0.32;;;;;;;24.25;40.10;101031.25;5009909;28;20508;-60
2022/08/10 01:11:13;;;;;;;4.78;0.70;;;;;;;24.26;40.21;101029.41;5009419;28;20037;-59
2022/08/10 01:13:56;;;;;;;4.07;0.60;;;;;;;24.30;39.72;101036.72;5009793;28;20386;-59
2022/08/10 01:16:26;;;;;;;2.85;0.85;;;;;;;24.26;40.51;101034.72;5009151;28;20184;-60
2022/08/10 01:19:10;;;;;;;2.95;0.40;;;;;;;24.19;40.19;101042.75;5008452;28;20030;-61
2022/08/10 01:21:41;;;;;;;3.22;0.38;;;;;;;24.19;41.33;101040.06;5007778;28;20528;-59
2022/08/10 01:24:19;;;;;;;2.58;0.55;;;;;;;24.09;41.00;101037.13;5009215;28;20084;-59
2022/08/10 01:27:38;;;;;;;3.92;0.40;;;;;;;23.97;41.41;101042.34;5009003;28;20112;-60
2022/08/10 01:30:12;;;;;;;4.78;0.68;;;;;;;23.93;41.56;101041.16;4947284;28;20046;-60
2022/08/10 01:33:08;;;;;;;4.25;0.40;;;;;;;23.85;41.39;101037.94;4948154;29;20039;-60
2022/08/10 01:35:38;;;;;;;3.08;0.50;;;;;;;23.72;42.62;101039.69;4947271;28;20043;-59
2022/08/10 01:38:09;;;;;;;2.20;0.50;;;;;;;23.55;43.82;101043.94;4948178;29;20039;-59
2022/08/10 01:40:41;;;;;;;2.15;0.68;;;;;;;23.36;45.22;101040.34;4948145;29;20199;-59
2022/08/10 01:43:09;;;;;;;3.25;0.50;;;;;;;23.11;45.85;101052.78;4948150;28;20035;-60
2022/08/10 01:45:43;;;;;;;3.58;0.60;;;;;;;22.83;47.16;101056.56;4946795;28;20043;-59
2022/08/10 01:48:29;;;;;;;2.58;0.40;;;;;;;22.65;48.33;101043.13;4948138;29;20395;-59
2022/08/10 01:51:31;;;;;;;3.15;0.50;;;;;;;22.30;50.28;101050.56;4931141;29;20067;-59
2022/08/10 01:53:59;;;;;;;2.47;0.40;;;;;;;22.20;49.97;101050.19;4947863;29;20397;-58
2022/08/10 01:56:29;;;;;;;3.53;0.55;;;;;;;22.05;50.28;101042.44;4947719;29;20042;-59
2022/08/10 01:58:59;;;;;;;2.88;0.40;;;;;;;21.98;51.89;101048.75;4931806;29;20388;-60
2022/08/10 02:01:28;;;;;;;2.85;0.30;;;;;;;21.84;51.54;101050.56;4947753;29;20062;-59
2022/08/10 02:03:58;;;;;;;1.83;0.30;;;;;;;21.73;51.94;101059.16;4979703;28;20136;-59
2022/08/10 02:06:28;;;;;;;1.38;0.20;;;;;;;21.61;52.23;101055.47;5008252;28;20062;-58
2022/08/10 02:08:56;;;;;;;2.65;0.70;;;;;;;21.52;52.15;101052.19;5008721;28;20034;-59
2022/08/10 02:11:24;;;;;;;1.85;0.30;;;;;;;21.53;53.08;101053.84;5008971;28;20055;-59
2022/08/10 02:13:51;;;;;;;2.83;0.60;;;;;;;21.53;52.99;101065.25;5007508;28;20329;-58
2022/08/10 02:16:20;;;;;;;3.08;0.40;;;;;;;21.49;53.63;101058.72;4990728;28;20055;-59
2022/08/10 02:18:46;;;;;;;2.17;0.40;;;;;;;21.42;53.91;101057.88;5008722;28;20061;-58
2022/08/10 02:21:13;;;;;;;3.15;1.05;;;;;;;21.34;53.77;101055.41;5007587;28;20561;-59
2022/08/10 02:23:41;;;;;;;2.15;0.35;;;;;;;21.25;54.15;101059.31;5008780;28;20109;-58
2022/08/10 02:26:08;;;;;;;4.38;0.40;;;;;;;21.12;55.04;101067.16;5008182;28;20510;-58
2022/08/10 02:28:37;;;;;;;3.17;0.30;;;;;;;21.02;54.34;101058.78;4990469;28;20084;-59
2022/08/10 02:31:06;;;;;;;1.92;0.30;;;;;;;21.09;53.64;101057.78;4988616;28;20037;-58
2022/08/10 02:33:34;;;;;;;0.77;0.30;;;;;;;21.15;53.96;101059.66;5008483;28;20033;-58
2022/08/10 02:36:05;;;;;;;1.02;0.25;;;;;;;21.11;54.89;101054.94;5007652;28;20115;-59
2022/08/10 02:38:34;;;;;;;4.47;0.30;;;;;;;21.07;55.31;101053.69;5008139;28;20079;-58
2022/08/10 02:43:37;;;;;;;3.17;0.30;;;;;;;21.01;56.23;101054.50;4753143;23;20474;-70
2022/08/10 02:46:08;;;;;;;1.30;0.35;;;;;;;20.91;55.88;101057.50;5048212;28;20267;-71
2022/08/10 02:48:44;;;;;;;1.05;0.30;;;;;;;20.81;56.19;101055.22;5047647;28;20029;-71
2022/08/10 02:51:29;;;;;;;0.88;0.30;;;;;;;20.72;57.79;101058.25;5048001;28;20478;-70
2022/08/10 02:53:59;;;;;;;;;;;;;;;20.62;57.85;101049.84;5048538;28;20021;-67
2022/08/10 02:56:37;;;;;;;2.83;0.40;;;;;;;20.59;57.36;101051.06;5048163;28;19919;-69
2022/08/10 02:59:37;;;;;;;2.83;0.40;;;;;;;20.56;58.14;101054.09;5046283;28;20045;-67
2022/08/10 03:02:07;;;;;;;3.28;0.30;;;;;;;20.56;57.88;101056.75;5036708;28;20616;-69
2022/08/10 03:04:38;;;;;;;2.65;0.30;;;;;;;20.54;57.93;101051.63;5048043;28;20033;-69
2022/08/10 03:07:08;;;;;;;1.45;0.30;;;;;;;20.62;57.77;101044.56;5047834;28;20360;-68
2022/08/10 03:09:37;;;;;;;0.60;0.22;;;;;;;20.65;57.59;101044.97;5047613;28;20063;-66
2022/08/10 03:12:06;;;;;;;1.42;0.40;;;;;;;20.61;57.10;101042.91;5047916;28;20025;-71
2022/08/10 03:14:34;;;;;;;1.52;0.30;;;;;;;20.64;56.29;101043.34;5046387;28;20059;-71
2022/08/10 03:17:01;;;;;;;1.42;0.22;;;;;;;20.68;56.74;101047.25;5047881;28;20036;-69
2022/08/10 03:19:30;;;;;;;1.38;0.30;;;;;;;20.61;57.14;101043.75;5047619;28;20021;-67
2022/08/10 03:21:57;;;;;;;1.98;0.30;;;;;;;20.48;56.21;101041.00;5047622;28;20025;-68
2022/08/10 03:24:25;;;;;;;1.38;0.50;;;;;;;20.56;56.22;101051.44;5029763;28;20029;-71
2022/08/10 03:26:54;;;;;;;4.57;0.63;;;;;;;20.48;55.95;101049.78;5044688;28;20411;-73
2022/08/10 03:29:21;;;;;;;1.20;0.30;;;;;;;20.51;56.10;101048.56;5047549;28;20057;-69
2022/08/10 03:31:48;;;;;;;1.42;0.35;;;;;;;20.51;56.69;101043.28;5047660;28;20056;-66
2022/08/10 03:34:15;;;;;;;4.22;0.30;;;;;;;20.48;56.78;101043.66;5048577;28;20111;-71
2022/08/10 03:36:42;;;;;;;1.17;0.30;;;;;;;20.45;57.28;101049.34;5051401;28;20115;-68
2022/08/10 03:39:08;;;;;;;2.28;0.40;;;;;;;20.29;56.85;101049.63;5051014;28;20078;-70
2022/08/10 03:41:36;;;;;;;3.50;0.30;;;;;;;20.36;56.86;101045.19;5051213;28;20021;-73
2022/08/10 03:44:05;;;;;;;0.82;0.43;;;;;;;20.35;57.18;101052.31;5050804;28;20408;-70
2022/08/10 03:46:34;;;;;;;1.27;0.40;;;;;;;20.30;57.96;101052.09;5050961;28;20025;-66
2022/08/10 03:49:02;;;;;;;1.83;0.55;;;;;;;20.24;57.90;101058.16;5050767;28;20029;-67
2022/08/10 03:51:29;;;;;;;2.45;0.47;;;;;;;20.15;58.51;101060.13;5050804;28;20120;-66
2022/08/10 03:53:55;;;;;;;0.85;0.40;;;;;;;20.19;57.47;101061.38;5050874;28;20029;-66
2022/08/10 03:56:22;;;;;;;3.50;0.40;;;;;;;20.15;56.97;101067.25;5050767;28;20028;-65
2022/08/10 03:58:48;;;;;;;1.25;0.30;;;;;;;20.19;56.99;101063.22;5051010;28;20107;-67
2022/08/10 04:01:14;;;;;;;0.93;0.30;;;;;;;20.20;57.64;101065.66;5050632;28;20131;-66
2022/08/10 04:03:40;;;;;;;5.78;0.40;;;;;;;20.15;57.73;101064.59;5050495;28;20598;-65
2022/08/10 04:06:06;;;;;;;0.95;0.30;;;;;;;20.13;58.19;101064.78;5050586;28;20072;-66
2022/08/10 04:08:32;;;;;;;2.08;0.55;;;;;;;20.12;58.94;101068.44;5050591;28;20484;-65
2022/08/10 04:10:58;;;;;;;2.80;0.30;;;;;;;20.14;58.69;101061.13;5050497;28;20033;-66
2022/08/10 04:13:23;;;;;;;0.90;0.30;;;;;;;20.16;59.55;101066.22;5050725;28;20029;-65
2022/08/10 04:15:48;;;;;;;1.17;0.30;;;;;;;20.09;59.26;101071.47;5050486;28;20473;-67
2022/08/10 04:18:14;;;;;;;1.00;0.35;;;;;;;20.02;59.59;101075.88;5050458;28;20021;-65
2022/08/10 04:20:47;;;;;;;1.23;0.35;;;;;;;20.01;60.33;101074.25;5050380;28;20544;-65
2022/08/10 04:23:18;;;;;;;1.50;0.32;;;;;;;20.00;60.16;101067.31;5050158;28;20037;-66
2022/08/10 04:25:44;;;;;;;2.17;0.47;;;;;;;20.11;58.67;101069.47;5050408;28;20435;-67
2022/08/10 04:28:10;;;;;;;1.48;0.20;;;;;;;20.26;57.61;101065.91;5050524;28;20021;-67
2022/08/10 04:30:37;;;;;;;1.60;0.30;;;;;;;20.65;55.50;101063.50;5050182;28;20021;-65
2022/08/10 04:33:05;;;;;;;1.67;0.38;;;;;;;20.76;55.85;101062.97;5050130;28;20512;-66
2022/08/10 04:35:32;;;;;;;2.67;0.30;;;;;;;20.64;57.33;101072.47;5050232;28;20035;-67
2022/08/10 04:38:00;;;;;;;3.63;0.38;;;;;;;20.55;57.86;101078.94;5049945;28;20025;-66
2022/08/10 04:40:26;;;;;;;3.70;0.40;;;;;;;20.47;58.29;101081.72;5049904;28;20029;-67
2022/08/10 04:42:52;;;;;;;1.52;0.25;;;;;;;20.42;58.36;101079.66;5049744;28;20055;-67
2022/08/10 04:45:18;;;;;;;2.05;0.80;;;;;;;20.36;58.59;101079.59;5048779;28;20040;-67
2022/08/10 04:47:44;;;;;;;3.35;0.20;;;;;;;20.36;58.55;101071.63;5049600;28;20076;-66
2022/08/10 04:50:09;;;;;;;1.40;0.30;;;;;;;20.39;59.32;101079.22;5049990;28;20064;-67
2022/08/10 04:52:35;;;;;;;2.78;0.70;;;;;;;20.45;58.32;101084.56;5049955;28;20036;-67
2022/08/10 04:55:00;;;;;;;5.53;0.40;;;;;;;20.54;59.22;101083.41;5049802;28;20040;-66
2022/08/10 04:57:27;;;;;;;2.53;0.60;;;;;;;20.61;58.04;101075.50;5049693;28;20029;-65
2022/08/10 04:59:52;;;;;;;1.77;0.70;;;;;;;20.72;58.00;101092.69;5049693;28;20133;-66
2022/08/10 05:02:18;;;;;;;1.42;0.50;;;;;;;20.72;58.90;101087.38;5049604;28;20112;-67
2022/08/10 05:04:44;;;;;;;1.98;0.40;;;;;;;20.74;57.89;101091.47;5049376;28;20039;-68
2022/08/10 05:07:11;;;;;;;4.47;0.52;;;;;;;20.95;56.75;101092.38;5049647;28;20025;-66
2022/08/10 05:09:37;;;;;;;0.98;0.30;;;;;;;21.07;57.33;101093.44;5049352;28;20033;-67
2022/08/10 05:12:03;;;;;;;3.72;0.55;;;;;;;21.11;58.98;101084.91;5049867;28;20455;-67
2022/08/10 05:14:29;;;;;;;2.35;0.50;;;;;;;21.18;57.94;101082.28;5049075;28;20033;-67
2022/08/10 05:16:54;;;;;;;1.70;0.73;;;;;;;21.25;56.95;101085.81;5049498;28;20040;-67
2022/08/10 05:19:20;;;;;;;2.92;0.30;;;;;;;21.26;56.37;101079.47;5031278;28;20430;-66
2022/08/10 05:21:45;;;;;;;2.58;0.30;;;;;;;21.31;56.72;101079.66;5049110;28;20032;-67
2022/08/10 05:24:11;;;;;;;1.52;0.40;;;;;;;21.40;57.62;101085.63;5049609;28;20033;-67
2022/08/10 05:26:36;;;;;;;2.30;0.50;;;;;;;21.52;57.86;101087.47;5049617;28;20449;-67
2022/08/10 05:29:02;;;;;;;3.33;0.40;;;;;;;21.71;57.88;101079.78;5048909;28;20082;-72
2022/08/10 05:31:28;;;;;;;1.15;0.30;;;;;;;21.90;56.59;101086.91;5049045;28;20384;-69
2022/08/10 05:33:53;;;;;;;2.25;0.38;;;;;;;22.01;55.99;101081.03;5049073;28;20342;-70
2022/08/10 05:36:19;;;;;;;2.30;0.40;;;;;;;22.08;55.50;101078.38;5048848;28;20032;-71
2022/08/10 05:38:47;;;;;;;3.03;0.50;;;;;;;22.25;55.37;101074.25;5049358;28;20041;-69
2022/08/10 05:41:14;;;;;;;4.80;0.75;;;;;;;22.34;55.77;101073.00;5048909;28;20103;-70
2022/08/10 05:43:40;;;;;;;5.13;0.40;;;;;;;22.36;55.51;101075.47;5048365;28;20566;-68
2022/08/10 05:46:06;;;;;;;1.50;0.40;;;;;;;22.45;56.76;101077.69;5048572;28;20380;-67
2022/08/10 05:48:32;;;;;;;10.90;0.63;;;;;;;22.44;56.63;101080.56;5048956;28;20033;-72
2022/08/10 05:50:57;;;;;;;3.05;0.40;;;;;;;22.52;55.90;101075.03;5048983;28;20090;-70
2022/08/10 05:53:23;;;;;;;1.95;0.50;;;;;;;22.75;55.52;101075.34;5048606;28;20029;-70
2022/08/10 05:55:49;;;;;;;2.38;0.40;;;;;;;22.78;55.20;101074.97;5048515;28;20029;-69
2022/08/10 05:58:14;;;;;;;8.05;0.63;;;;;;;22.89;55.95;101070.84;5048052;28;20439;-70
2022/08/10 06:00:41;;;;;;;2.50;0.30;;;;;;;23.12;54.46;101080.97;5048665;28;20032;-68
2022/08/10 06:03:09;;;;;;;2.75;0.40;;;;;;;23.23;53.93;101074.97;5030624;28;20029;-71
2022/08/10 06:05:40;;;;;;;1.20;0.38;;;;;;;23.36;53.92;101072.25;5048426;28;20024;-69
2022/08/10 06:08:18;;;;;;;0.80;0.30;;;;;;;23.53;50.99;101072.59;5048575;28;20078;-69
2022/08/10 06:10:45;;;;;;;3.70;0.30;;;;;;;23.67;51.33;101074.09;5048200;28;20417;-69
2022/08/10 06:15:57;;;;;;;1.30;0.30;;;;;;;23.79;49.25;101082.19;5048727;28;20114;-69
2022/08/10 06:18:23;;;;;;;4.15;0.20;;;;;;;23.86;49.43;101082.16;5048237;28;20519;-73
2022/08/10 06:20:50;;;;;;;1.50;0.57;;;;;;;23.85;48.88;101078.69;5048158;28;20036;-71
2022/08/10 06:23:16;;;;;;;0.85;0.30;;;;;;;23.95;48.68;101076.34;5048073;28;20532;-69
2022/08/10 06:25:42;;;;;;;3.20;0.30;;;;;;;24.07;48.69;101082.59;5048177;28;20175;-69
2022/08/10 06:28:13;;;;;;;2.58;0.47;;;;;;;24.21;48.41;101079.78;5048460;28;20028;-71
2022/08/10 06:30:39;;;;;;;1.00;0.40;;;;;;;24.28;47.42;101081.41;5048217;28;20028;-72
2022/08/10 06:33:07;;;;;;;1.13;0.20;;;;;;;24.36;46.42;101077.63;5048116;28;20032;-71
2022/08/10 06:35:34;;;;;;;2.28;0.40;;;;;;;24.43;46.02;101083.72;5048201;28;20492;-69
2022/08/10 06:38:02;;;;;;;1.20;0.20;;;;;;;24.53;45.67;101073.38;5048326;28;20108;-71
2022/08/10 06:40:34;;;;;;;2.13;0.20;;;;;;;24.64;45.11;101071.78;5048322;28;20441;-66
2022/08/10 06:43:04;;;;;;;1.70;0.70;;;;;;;24.67;44.58;101080.16;5047606;28;20049;-66
2022/08/10 06:45:37;;;;;;;2.38;0.30;;;;;;;24.72;44.04;101077.63;5048241;28;20029;-66
2022/08/10 06:48:03;;;;;;;2.05;0.20;;;;;;;24.85;42.76;101082.00;5047801;28;20564;-66
2022/08/10 06:50:42;;;;;;;3.25;0.20;;;;;;;24.97;41.08;101079.44;5048228;28;20025;-66
2022/08/10 06:53:19;;;;;;;2.35;0.30;;;;;;;25.05;42.31;101068.44;5048524;28;20037;-67
2022/08/10 06:55:52;;;;;;;2.08;0.40;;;;;;;25.24;42.34;101075.38;5047981;28;20055;-66
2022/08/10 06:58:20;;;;;;;2.60;0.38;;;;;;;25.34;42.51;101078.31;5047958;28;20076;-67
2022/08/10 07:00:50;;;;;;;1.65;0.20;;;;;;;25.34;41.14;101072.16;5047564;28;20555;-67
2022/08/10 07:03:18;;;;;;;3.72;0.20;;;;;;;25.36;40.76;101072.75;5048156;28;20036;-65
2022/08/10 07:05:46;;;;;;;2.88;0.20;;;;;;;25.43;40.95;101068.94;5048010;28;20033;-67
2022/08/10 07:08:16;;;;;;;3.45;0.20;;;;;;;25.54;40.23;101066.50;5047841;28;20527;-66
2022/08/10 07:10:43;;;;;;;1.17;0.30;;;;;;;25.66;40.10;101062.03;5051261;28;20032;-66
2022/08/10 07:13:11;;;;;;;0.95;0.20;;;;;;;25.79;38.21;101056.50;5051607;28;20025;-66
2022/08/10 07:15:37;;;;;;;6.65;0.50;;;;;;;25.90;36.57;101058.38;5033884;28;20029;-66
2022/08/10 07:18:04;;;;;;;2.17;0.40;;;;;;;26.03;36.81;101047.44;5051491;28;20578;-66
2022/08/10 07:20:33;;;;;;;2.70;0.30;;;;;;;26.11;36.12;101060.44;5045224;28;20464;-67
2022/08/10 07:22:59;;;;;;;2.50;0.20;;;;;;;26.19;35.52;101056.63;5040588;28;20033;-66
2022/08/10 07:25:26;;;;;;;4.47;0.38;;;;;;;26.25;34.93;101062.91;5036598;28;20033;-68
2022/08/10 07:27:54;;;;;;;3.10;0.20;;;;;;;26.23;34.89;101059.66;5047163;28;20119;-70
2022/08/10 07:30:20;;;;;;;4.10;0.20;;;;;;;26.17;35.40;101055.22;5040252;28;20117;-71
2022/08/10 07:32:48;;;;;;;0.40;0.10;;;;;;;26.18;35.10;101055.00;5041620;28;20025;-71
2022/08/10 07:35:15;;;;;;;0.30;0.10;;;;;;;26.26;34.21;101048.50;5047703;28;20112;-67
2022/08/10 07:37:45;;;;;;;0.55;0.13;;;;;;;26.36;34.72;101044.22;5039445;28;20166;-65
2022/08/10 07:40:13;;;;;;;7.65;0.32;;;;;;;26.39;34.25;101041.09;5043906;28;20481;-65
2022/08/10 07:42:41;;;;;;;0.52;0.30;;;;;;;26.51;34.30;101049.06;5048250;28;20588;-66
2022/08/10 07:45:07;;;;;;;4.63;0.20;;;;;;;26.55;34.38;101038.72;5045955;28;20045;-65
2022/08/10 07:47:38;;;;;;;0.70;0.20;;;;;;;26.58;33.62;101032.88;5050842;28;20029;-65
2022/08/10 07:50:09;;;;;;;1.02;0.20;;;;;;;26.67;33.83;101034.97;5048910;28;20400;-66
2022/08/10 07:52:36;;;;;;;2.63;0.20;;;;;;;26.78;33.43;101039.47;5046071;28;20033;-67
2022/08/10 07:55:03;;;;;;;3.70;0.20;;;;;;;27.02;32.93;101044.75;5050662;28;20112;-65
2022/08/10 07:57:33;;;;;;;3.05;0.20;;;;;;;26.98;32.64;101046.25;5048392;28;20403;-66
2022/08/10 08:00:02;;;;;;;1.75;0.10;;;;;;;26.89;33.34;101037.00;5047129;28;20116;-65
2022/08/10 08:02:52;;;;;;;3.40;0.20;;;;;;;27.01;33.12;101032.41;5049252;28;20036;-65
2022/08/10 08:05:26;;;;;;;1.95;0.40;;;;;;;27.17;33.39;101036.19;5037642;28;20336;-63
2022/08/10 08:07:55;;;;;;;1.58;0.20;;;;;;;27.33;33.07;101035.41;5038133;28;20064;-65
2022/08/10 08:10:28;;;;;;;6.63;0.20;;;;;;;27.46;32.14;101040.44;5044658;28;20029;-62
2022/08/10 08:13:00;;;;;;;1.13;0.20;;;;;;;27.49;31.95;101034.59;5049741;28;20029;-66
2022/08/10 08:15:27;;;;;;;2.03;0.35;;;;;;;27.60;31.68;101030.25;5047744;28;20616;-64
2022/08/10 08:17:55;;;;;;;0.60;0.17;;;;;;;27.56;31.95;101029.09;5044912;28;20070;-65
2022/08/10 08:20:22;;;;;;;1.75;0.25;;;;;;;27.50;31.64;101036.22;5045389;28;20230;-64
2022/08/10 08:22:49;;;;;;;1.60;0.17;;;;;;;27.51;31.91;101034.34;5039722;28;20568;-64
2022/08/10 08:25:16;;;;;;;5.15;0.20;;;;;;;27.64;32.06;101026.03;5046590;28;20091;-64
2022/08/10 08:27:44;;;;;;;1.42;0.20;;;;;;;27.79;31.94;101018.25;5037497;28;20426;-66
2022/08/10 08:30:10;;;;;;;0.90;0.20;;;;;;;27.67;30.45;101037.06;5047234;28;20036;-67
2022/08/10 08:32:39;;;;;;;5.15;0.20;;;;;;;27.72;31.34;101029.13;5044881;28;20029;-65
2022/08/10 08:35:08;;;;;;;1.50;0.10;;;;;;;27.82;31.38;101033.03;5044000;28;20041;-64
2022/08/10 08:37:39;;;;;;;2.10;0.20;;;;;;;27.92;31.18;101023.25;5047281;28;20025;-63
2022/08/10 08:40:09;;;;;;;3.13;0.13;;;;;;;27.82;30.34;101033.03;5044912;28;20060;-64
2022/08/10 08:42:43;;;;;;;1.20;0.40;;;;;;;27.99;30.95;101026.56;5048424;28;20050;-64
2022/08/10 08:45:15;;;;;;;1.98;0.10;;;;;;;28.04;30.63;101020.47;5030358;28;20059;-64
2022/08/10 08:48:07;;;;;;;0.22;0.10;;;;;;;28.12;30.42;101028.09;5043555;28;20033;-64
2022/08/10 08:51:01;;;;;;;0.98;0.20;;;;;;;28.03;29.82;101038.41;5048836;28;20130;-64
2022/08/10 08:53:55;;;;;;;3.28;0.20;;;;;;;27.89;29.72;101028.28;5035585;28;20036;-67
2022/08/10 08:56:34;;;;;;;1.20;0.10;;;;;;;27.90;30.48;101014.66;5043680;28;20431;-64
2022/08/10 08:59:18;;;;;;;3.20;0.20;;;;;;;27.99;30.77;101023.06;5035515;28;20151;-66
2022/08/10 09:02:41;;;;;;;2.72;0.20;;;;;;;28.04;30.39;101026.63;5038668;28;20032;-63
2022/08/10 09:05:23;;;;;;;1.85;0.30;;;;;;;28.20;30.60;101021.50;4956868;28;20077;-64
2022/08/10 09:08:23;;;;;;;3.25;0.20;;;;;;;28.16;29.90;101023.06;4967862;28;20093;-64
2022/08/10 09:10:58;;;;;;;0.80;0.20;;;;;;;28.24;30.82;101014.63;4962990;28;20132;-66
2022/08/10 09:13:37;;;;;;;1.95;0.20;;;;;;;28.39;30.94;101007.56;4964185;28;20688;-65
2022/08/10 09:16:18;;;;;;;1.27;0.20;;;;;;;28.44;30.99;101006.81;4967055;28;20435;-65
2022/08/10 09:19:05;;;;;;;1.85;0.20;;;;;;;28.54;30.61;101012.31;4967951;28;20845;-64
2022/08/10 09:21:49;;;;;;;0.55;0.20;;;;;;;28.55;30.53;101005.06;4967821;28;20510;-64
2022/08/10 09:24:39;;;;;;;2.17;0.17;;;;;;;28.54;30.12;101009.63;4967770;28;20130;-65
2022/08/10 09:27:18;;;;;;;0.75;0.25;;;;;;;28.50;30.18;101005.81;4967974;28;20395;-64
2022/08/10 09:29:56;;;;;;;1.10;0.30;;;;;;;28.52;31.41;101008.25;4967610;28;20103;-64
2022/08/10 09:32:38;;;;;;;1.15;0.20;;;;;;;28.47;30.56;101002.84;4967187;28;20035;-65
2022/08/10 09:35:28;;;;;;;3.03;0.20;;;;;;;28.49;30.12;100998.84;4979316;28;20048;-65
2022/08/10 09:38:00;;;;;;;0.40;0.10;;;;;;;28.55;30.42;101013.13;5048964;28;20496;-64
2022/08/10 09:40:38;;;;;;;2.78;0.40;;;;;;;28.59;30.75;101003.53;5048879;28;20036;-65
2022/08/10 09:43:34;;;;;;;1.45;0.20;;;;;;;28.68;29.88;101000.16;5048805;28;20500;-65
2022/08/10 09:46:09;;;;;;;0.52;0.25;;;;;;;28.55;30.40;100999.72;4986619;28;20045;-64
2022/08/10 09:48:58;;;;;;;2.70;0.20;;;;;;;28.60;30.30;101002.47;4986785;28;20034;-64
2022/08/10 09:51:53;;;;;;;0.68;0.20;;;;;;;28.55;30.53;100989.00;4986554;28;20050;-66
2022/08/10 09:54:41;;;;;;;3.53;0.30;;;;;;;28.66;30.94;100996.91;4986744;28;20046;-65
2022/08/10 09:57:38;;;;;;;2.55;0.20;;;;;;;28.58;30.62;100988.50;4986671;28;20091;-65
2022/08/10 10:00:11;;;;;;;2.40;0.20;;;;;;;28.64;30.11;100987.50;4986720;28;20031;-65
2022/08/10 10:02:55;;;;;;;1.08;0.10;;;;;;;28.52;30.49;100989.50;4986481;28;20030;-65
2022/08/10 10:05:30;;;;;;;1.45;0.43;;;;;;;28.58;30.12;100994.66;4986532;28;20034;-64
2022/08/10 10:08:35;;;;;;;1.08;0.10;;;;;;;28.69;30.04;100985.69;4986584;28;20034;-64
2022/08/10 10:11:32;;;;;;;2.67;0.20;;;;;;;28.69;29.21;100974.97;4986531;28;20049;-64
2022/08/10 10:14:19;;;;;;;3.88;0.20;;;;;;;28.76;29.66;100992.72;4986564;28;20041;-64
2022/08/10 10:17:11;;;;;;;0.32;0.10;;;;;;;28.60;29.25;100987.19;4986415;28;20061;-65
2022/08/10 10:20:01;;;;;;;1.48;0.10;;;;;;;28.60;29.47;100976.47;4986298;28;20073;-65
2022/08/10 10:22:30;;;;;;;1.65;0.10;;;;;;;28.70;29.99;100971.22;5004344;28;20582;-64
2022/08/10 10:25:14;;;;;;;0.65;0.13;;;;;;;28.83;29.18;100983.41;5048526;28;20036;-65
2022/08/10 10:28:15;;;;;;;0.93;0.40;;;;;;;28.71;29.26;100972.84;5048602;28;20353;-64
2022/08/10 10:31:03;;;;;;;3.15;0.20;;;;;;;28.76;29.94;100968.59;5048174;28;20127;-64
2022/08/10 10:33:41;;;;;;;1.05;0.22;;;;;;;28.89;29.47;100966.31;5046483;28;20040;-64
2022/08/10 10:36:08;;;;;;;0.45;0.10;;;;;;;28.84;29.87;100960.91;5038957;28;20507;-65
2022/08/10 10:38:36;;;;;;;0.95;0.28;;;;;;;28.93;30.07;100955.91;5037622;28;20033;-65
2022/08/10 10:41:35;;;;;;;2.75;0.25;;;;;;;29.11;30.12;100957.41;5043326;28;20476;-64
2022/08/10 10:44:04;;;;;;;1.13;0.20;;;;;;;29.01;29.85;100950.88;5035471;28;20135;-65
2022/08/10 10:46:52;;;;;;;0.80;0.20;;;;;;;28.99;29.52;100957.56;5047903;28;20068;-64
2022/08/10 10:49:56;;;;;;;0.85;0.20;;;;;;;28.89;30.20;100952.09;5047212;28;20373;-65
2022/08/10 10:52:49;;;;;;;3.92;0.30;;;;;;;29.11;30.42;100955.53;5037553;28;20049;-65
2022/08/10 10:55:49;;;;;;;3.22;0.47;;;;;;;29.29;29.95;100951.66;5051840;28;20503;-63
2022/08/10 10:58:28;;;;;;;0.85;0.20;;;;;;;29.38;29.08;100956.28;5047490;28;20040;-66
2022/08/10 11:01:01;;;;;;;2.00;0.20;;;;;;;29.30;29.38;100951.38;5039076;28;20026;-65
2022/08/10 11:03:44;;;;;;;3.15;0.30;;;;;;;29.16;29.10;100947.53;5034536;28;20033;-64
2022/08/10 11:06:28;;;;;;;0.68;0.30;;;;;;;29.03;29.87;100939.91;5038800;28;20480;-65
2022/08/10 11:09:02;;;;;;;2.10;0.30;;;;;;;29.16;30.04;100939.47;5056704;28;20045;-63
2022/08/10 11:11:33;;;;;;;0.85;0.20;;;;;;;29.10;30.17;100943.19;5048093;28;20028;-66
2022/08/10 11:14:07;;;;;;;1.65;0.35;;;;;;;29.14;30.42;100938.94;5041048;28;20141;-64
2022/08/10 11:16:43;;;;;;;3.65;0.30;;;;;;;29.13;29.80;100931.13;5044607;28;20465;-64
2022/08/10 11:19:20;;;;;;;2.70;0.30;;;;;;;29.14;29.46;100930.06;5048801;28;20044;-64
2022/08/10 11:22:27;;;;;;;1.73;0.30;;;;;;;29.00;29.26;100932.34;5046328;28;20397;-66
2022/08/10 11:25:11;;;;;;;1.25;0.40;;;;;;;29.08;29.67;100933.78;5035100;28;20340;-63
2022/08/10 11:27:59;;;;;;;1.73;0.30;;;;;;;29.29;30.53;100920.28;5045359;28;20489;-64
2022/08/10 11:30:33;;;;;;;1.23;0.32;;;;;;;29.29;29.91;100920.28;5046204;28;20041;-64
2022/08/10 11:33:29;;;;;;;0.60;0.30;;;;;;;29.27;30.00;100916.22;5048214;28;20110;-65
2022/08/10 11:36:07;;;;;;;0.47;0.20;;;;;;;29.26;29.93;100907.38;5050219;28;20045;-65
2022/08/10 11:38:50;;;;;;;0.68;0.20;;;;;;;29.29;29.97;100914.91;5047808;28;20538;-64
2022/08/10 11:41:32;;;;;;;6.15;0.30;;;;;;;29.37;30.10;100922.44;5032040;28;20389;-64
2022/08/10 11:44:10;;;;;;;0.80;0.30;;;;;;;29.22;29.75;100908.94;5041480;28;20053;-65
2022/08/10 11:46:48;;;;;;;0.80;0.30;;;;;;;29.12;30.46;100908.88;5048552;28;20083;-65
2022/08/10 11:49:29;;;;;;;2.75;0.40;;;;;;;29.10;30.18;100902.13;5043229;28;20057;-64
2022/08/10 11:52:21;;;;;;;1.92;0.20;;;;;;;29.28;29.51;100921.34;5039683;28;20034;-64
2022/08/10 11:54:54;;;;;;;1.23;0.40;;;;;;;29.31;30.53;100906.56;5019230;28;20134;-65
2022/08/10 11:57:27;;;;;;;0.60;0.20;;;;;;;29.39;30.15;100914.94;5049044;28;20044;-64